sensor_id;sensor_type;location;lat;lon;timestamp;pressure;altitude;pressure_sealevel;temperature;humidity
74893;BME280;63446;56.272;43.922;2024-01-15T00:02:23;99600.25;;;-7.65;57.30
74893;BME280;63446;56.272;43.922;2024-01-15T00:04:49;99602.66;;;-7.63;57.44
74893;BME280;63446;56.272;43.922;2024-01-15T00:07:15;99604.41;;;-7.64;57.56
74893;BME280;63446;56.272;43.922;2024-01-15T00:09:40;99593.97;;;-7.62;57.59
74893;BME280;63446;56.272;43.922;2024-01-15T00:12:06;99592.19;;;-7.62;57.62
74893;BME280;63446;56.272;43.922;2024-01-15T00:14:33;99590.28;;;-7.59;57.47
74893;BME280;63446;56.272;43.922;2024-01-15T00:16:58;99593.63;;;-7.59;57.57
74893;BME280;63446;56.272;43.922;2024-01-15T00:19:24;99582.72;;;-7.61;57.50
74893;BME280;63446;56.272;43.922;2024-01-15T00:21:51;99597.97;;;-7.59;57.56
74893;BME280;63446;56.272;43.922;2024-01-15T00:24:16;99592.03;;;-7.60;57.62
74893;BME280;63446;56.272;43.922;2024-01-15T00:26:42;99590.09;;;-7.58;57.72
74893;BME280;63446;56.272;43.922;2024-01-15T00:29:09;99588.31;;;-7.57;57.86
74893;BME280;63446;56.272;43.922;2024-01-15T00:31:35;99591.53;;;-7.55;57.73
74893;BME280;63446;56.272;43.922;2024-01-15T00:34:01;99587.19;;;-7.55;57.68
74893;BME280;63446;56.272;43.922;2024-01-15T00:36:28;99585.59;;;-7.56;57.86
74893;BME280;63446;56.272;43.922;2024-01-15T00:38:54;99578.53;;;-7.54;57.67
74893;BME280;63446;56.272;43.922;2024-01-15T00:41:20;99575.16;;;-7.54;57.80
74893;BME280;63446;56.272;43.922;2024-01-15T00:43:48;99587.00;;;-7.53;57.82
74893;BME280;63446;56.272;43.922;2024-01-15T00:46:16;99572.59;;;-7.54;57.76
74893;BME280;63446;56.272;43.922;2024-01-15T00:48:43;99578.53;;;-7.54;57.90
74893;BME280;63446;56.272;43.922;2024-01-15T00:51:09;99575.81;;;-7.52;57.80
74893;BME280;63446;56.272;43.922;2024-01-15T00:53:34;99566.66;;;-7.55;57.71
74893;BME280;63446;56.272;43.922;2024-01-15T00:56:00;99578.53;;;-7.54;57.64
74893;BME280;63446;56.272;43.922;2024-01-15T00:58:27;99570.22;;;-7.56;57.74
74893;BME280;63446;56.272;43.922;2024-01-15T01:00:52;99565.06;;;-7.56;57.74
74893;BME280;63446;56.272;43.922;2024-01-15T01:03:18;99568.63;;;-7.57;57.48
74893;BME280;63446;56.272;43.922;2024-01-15T01:05:44;99565.41;;;-7.59;57.64
74893;BME280;63446;56.272;43.922;2024-01-15T01:08:11;99572.47;;;-7.61;57.59
74893;BME280;63446;56.272;43.922;2024-01-15T01:10:37;99560.63;;;-7.62;57.66
74893;BME280;63446;56.272;43.922;2024-01-15T01:13:03;99556.78;;;-7.66;57.49
74893;BME280;63446;56.272;43.922;2024-01-15T01:15:28;99556.78;;;-7.66;57.43
74893;BME280;63446;56.272;43.922;2024-01-15T01:17:54;99562.91;;;-7.67;57.60
74893;BME280;63446;56.272;43.922;2024-01-15T01:20:20;99556.00;;;-7.67;57.74
74893;BME280;63446;56.272;43.922;2024-01-15T01:22:46;99552.78;;;-7.69;57.71
74893;BME280;63446;56.272;43.922;2024-01-15T01:25:11;99551.84;;;-7.68;57.73
74893;BME280;63446;56.272;43.922;2024-01-15T01:27:38;99560.50;;;-7.69;57.67
74893;BME280;63446;56.272;43.922;2024-01-15T01:30:04;99543.50;;;-7.70;57.64
74893;BME280;63446;56.272;43.922;2024-01-15T01:32:31;99536.00;;;-7.71;57.64
74893;BME280;63446;56.272;43.922;2024-01-15T01:34:56;99533.44;;;-7.71;57.75
74893;BME280;63446;56.272;43.922;2024-01-15T01:37:23;99534.75;;;-7.75;57.63
74893;BME280;63446;56.272;43.922;2024-01-15T01:39:49;99536.31;;;-7.74;57.58
74893;BME280;63446;56.272;43.922;2024-01-15T01:42:15;99531.53;;;-7.77;57.56
74893;BME280;63446;56.272;43.922;2024-01-15T01:44:41;99525.00;;;-7.80;57.64
74893;BME280;63446;56.272;43.922;2024-01-15T01:47:07;99522.56;;;-7.81;57.58
74893;BME280;63446;56.272;43.922;2024-01-15T01:49:35;99523.56;;;-7.82;57.66
74893;BME280;63446;56.272;43.922;2024-01-15T01:52:02;99516.03;;;-7.84;57.73
74893;BME280;63446;56.272;43.922;2024-01-15T01:54:32;99513.63;;;-7.86;57.65
74893;BME280;63446;56.272;43.922;2024-01-15T01:56:59;99512.50;;;-7.83;57.81
74893;BME280;63446;56.272;43.922;2024-01-15T01:59:28;99513.28;;;-7.82;57.89
74893;BME280;63446;56.272;43.922;2024-01-15T02:01:54;99502.75;;;-7.88;57.85
74893;BME280;63446;56.272;43.922;2024-01-15T02:04:24;99509.28;;;-7.85;57.75
74893;BME280;63446;56.272;43.922;2024-01-15T02:06:50;99514.09;;;-7.82;57.97
74893;BME280;63446;56.272;43.922;2024-01-15T02:09:20;99511.69;;;-7.83;57.83
74893;BME280;63446;56.272;43.922;2024-01-15T02:11:47;99508.16;;;-7.82;57.76
74893;BME280;63446;56.272;43.922;2024-01-15T02:14:13;99513.63;;;-7.86;57.92
74893;BME280;63446;56.272;43.922;2024-01-15T02:16:40;99518.75;;;-7.86;57.68
74893;BME280;63446;56.272;43.922;2024-01-15T02:19:06;99517.16;;;-7.87;57.71
74893;BME280;63446;56.272;43.922;2024-01-15T02:21:33;99515.41;;;-7.86;57.80
74893;BME280;63446;56.272;43.922;2024-01-15T02:24:01;99513.63;;;-7.86;57.67
74893;BME280;63446;56.272;43.922;2024-01-15T02:26:27;99511.06;;;-7.86;57.72
74893;BME280;63446;56.272;43.922;2024-01-15T02:28:54;99506.72;;;-7.85;57.72
74893;BME280;63446;56.272;43.922;2024-01-15T02:31:19;99507.53;;;-7.84;57.73
74893;BME280;63446;56.272;43.922;2024-01-15T02:33:45;99503.22;;;-7.84;57.89
74893;BME280;63446;56.272;43.922;2024-01-15T02:36:16;99509.75;;;-7.81;57.87
74893;BME280;63446;56.272;43.922;2024-01-15T02:38:42;99504.63;;;-7.81;57.75
74893;BME280;63446;56.272;43.922;2024-01-15T02:41:07;99502.06;;;-7.81;57.74
74893;BME280;63446;56.272;43.922;2024-01-15T02:43:33;99510.53;;;-7.81;57.83
74893;BME280;63446;56.272;43.922;2024-01-15T02:45:59;99495.94;;;-7.80;57.90
74893;BME280;63446;56.272;43.922;2024-01-15T02:48:25;99500.28;;;-7.81;57.78
74893;BME280;63446;56.272;43.922;2024-01-15T02:50:51;99504.63;;;-7.81;57.73
74893;BME280;63446;56.272;43.922;2024-01-15T02:53:17;99495.16;;;-7.81;57.74
74893;BME280;63446;56.272;43.922;2024-01-15T02:55:43;99501.91;;;-7.80;57.73
74893;BME280;63446;56.272;43.922;2024-01-15T02:58:09;99501.09;;;-7.80;57.70
74893;BME280;63446;56.272;43.922;2024-01-15T03:00:35;99495.81;;;-7.79;57.76
74893;BME280;63446;56.272;43.922;2024-01-15T03:03:00;99497.56;;;-7.79;57.91
74893;BME280;63446;56.272;43.922;2024-01-15T03:05:26;99488.91;;;-7.78;57.77
74893;BME280;63446;56.272;43.922;2024-01-15T03:07:52;99487.91;;;-7.77;57.96
74893;BME280;63446;56.272;43.922;2024-01-15T03:10:18;99493.06;;;-7.77;57.93
74893;BME280;63446;56.272;43.922;2024-01-15T03:12:43;99487.91;;;-7.77;57.93
74893;BME280;63446;56.272;43.922;2024-01-15T03:15:09;99481.81;;;-7.76;58.04
74893;BME280;63446;56.272;43.922;2024-01-15T03:17:35;99482.28;;;-7.73;58.17
74893;BME280;63446;56.272;43.922;2024-01-15T03:20:01;99478.75;;;-7.72;58.04
74893;BME280;63446;56.272;43.922;2024-01-15T03:22:30;99484.50;;;-7.70;58.18
74893;BME280;63446;56.272;43.922;2024-01-15T03:24:56;99487.53;;;-7.66;58.23
74893;BME280;63446;56.272;43.922;2024-01-15T03:27:21;99489.09;;;-7.65;58.10
74893;BME280;63446;56.272;43.922;2024-01-15T03:29:47;99486.38;;;-7.64;58.20
74893;BME280;63446;56.272;43.922;2024-01-15T03:32:13;99480.47;;;-7.64;58.12
74893;BME280;63446;56.272;43.922;2024-01-15T03:34:39;99478.50;;;-7.62;58.24
74893;BME280;63446;56.272;43.922;2024-01-15T03:37:05;99466.03;;;-7.65;58.13
74893;BME280;63446;56.272;43.922;2024-01-15T03:39:31;99482.84;;;-7.63;58.24
74893;BME280;63446;56.272;43.922;2024-01-15T03:41:57;99478.50;;;-7.62;58.24
74893;BME280;63446;56.272;43.922;2024-01-15T03:44:23;99469.22;;;-7.63;58.22
74893;BME280;63446;56.272;43.922;2024-01-15T03:46:50;99475.94;;;-7.62;58.34
74893;BME280;63446;56.272;43.922;2024-01-15T03:49:16;99470.03;;;-7.63;58.24
74893;BME280;63446;56.272;43.922;2024-01-15T03:51:41;99468.88;;;-7.60;58.21
74893;BME280;63446;56.272;43.922;2024-01-15T03:54:07;99469.84;;;-7.61;58.21
74893;BME280;63446;56.272;43.922;2024-01-15T03:56:33;99474.81;;;-7.59;58.27
74893;BME280;63446;56.272;43.922;2024-01-15T03:58:59;99472.25;;;-7.59;58.47
74893;BME280;63446;56.272;43.922;2024-01-15T04:01:25;99467.91;;;-7.59;58.42
74893;BME280;63446;56.272;43.922;2024-01-15T04:03:51;99461.00;;;-7.58;58.47
74893;BME280;63446;56.272;43.922;2024-01-15T04:06:17;99454.75;;;-7.56;58.40
74893;BME280;63446;56.272;43.922;2024-01-15T04:08:43;99464.03;;;-7.55;58.67
74893;BME280;63446;56.272;43.922;2024-01-15T04:11:09;99468.97;;;-7.53;58.49
74893;BME280;63446;56.272;43.922;2024-01-15T04:13:35;99465.44;;;-7.52;58.51
74893;BME280;63446;56.272;43.922;2024-01-15T04:16:02;99460.31;;;-7.52;58.39
74893;BME280;63446;56.272;43.922;2024-01-15T04:18:28;99464.66;;;-7.53;58.49
74893;BME280;63446;56.272;43.922;2024-01-15T04:20:54;99454.75;;;-7.56;58.43
74893;BME280;63446;56.272;43.922;2024-01-15T04:23:20;99462.59;;;-7.57;58.49
74893;BME280;63446;56.272;43.922;2024-01-15T04:25:47;99453.16;;;-7.57;58.59
74893;BME280;63446;56.272;43.922;2024-01-15T04:28:12;99463.56;;;-7.58;58.61
74893;BME280;63446;56.272;43.922;2024-01-15T04:30:38;99467.72;;;-7.57;58.73
74893;BME280;63446;56.272;43.922;2024-01-15T04:33:04;99462.59;;;-7.57;58.74
74893;BME280;63446;56.272;43.922;2024-01-15T04:35:31;99473.50;;;-7.55;58.80
74893;BME280;63446;56.272;43.922;2024-01-15T04:37:56;99470.94;;;-7.55;58.75
74893;BME280;63446;56.272;43.922;2024-01-15T04:40:22;99474.09;;;-7.53;58.81
74893;BME280;63446;56.272;43.922;2024-01-15T04:42:48;99468.03;;;-7.52;58.84
74893;BME280;63446;56.272;43.922;2024-01-15T04:45:14;99473.75;;;-7.50;58.96
74893;BME280;63446;56.272;43.922;2024-01-15T04:47:40;99472.81;;;-7.49;58.95
74893;BME280;63446;56.272;43.922;2024-01-15T04:50:07;99474.22;;;-7.47;58.93
74893;BME280;63446;56.272;43.922;2024-01-15T04:52:32;99479.19;;;-7.45;58.99
74893;BME280;63446;56.272;43.922;2024-01-15T04:54:58;99471.94;;;-7.42;58.95
74893;BME280;63446;56.272;43.922;2024-01-15T04:57:24;99482.03;;;-7.40;58.97
74893;BME280;63446;56.272;43.922;2024-01-15T04:59:50;99472.38;;;-7.38;58.94
74893;BME280;63446;56.272;43.922;2024-01-15T05:02:16;99478.94;;;-7.35;59.03
74893;BME280;63446;56.272;43.922;2024-01-15T05:04:42;99487.28;;;-7.33;59.21
74893;BME280;63446;56.272;43.922;2024-01-15T05:07:08;99480.38;;;-7.33;59.04
74893;BME280;63446;56.272;43.922;2024-01-15T05:09:34;99480.19;;;-7.31;59.11
74893;BME280;63446;56.272;43.922;2024-01-15T05:12:00;99474.88;;;-7.30;59.21
74893;BME280;63446;56.272;43.922;2024-01-15T05:14:26;99470.34;;;-7.28;59.22
74893;BME280;63446;56.272;43.922;2024-01-15T05:16:51;99468.44;;;-7.26;59.26
74893;BME280;63446;56.272;43.922;2024-01-15T05:19:18;99464.88;;;-7.25;59.08
74893;BME280;63446;56.272;43.922;2024-01-15T05:21:43;99466.47;;;-7.24;59.06
74893;BME280;63446;56.272;43.922;2024-01-15T05:24:09;99473.19;;;-7.23;58.97
74893;BME280;63446;56.272;43.922;2024-01-15T05:26:35;99473.19;;;-7.23;59.05
74893;BME280;63446;56.272;43.922;2024-01-15T05:29:01;99463.75;;;-7.22;58.96
74893;BME280;63446;56.272;43.922;2024-01-15T05:31:26;99473.03;;;-7.21;59.13
74893;BME280;63446;56.272;43.922;2024-01-15T05:33:52;99472.06;;;-7.20;59.06
74893;BME280;63446;56.272;43.922;2024-01-15T05:36:19;99471.72;;;-7.17;59.41
74893;BME280;63446;56.272;43.922;2024-01-15T05:38:44;99477.63;;;-7.17;59.23
74893;BME280;63446;56.272;43.922;2024-01-15T05:41:10;99476.84;;;-7.17;59.28
74893;BME280;63446;56.272;43.922;2024-01-15T05:43:36;99475.72;;;-7.15;59.32
74893;BME280;63446;56.272;43.922;2024-01-15T05:46:02;99481.63;;;-7.14;59.34
74893;BME280;63446;56.272;43.922;2024-01-15T05:48:28;99475.34;;;-7.12;59.36
74893;BME280;63446;56.272;43.922;2024-01-15T05:50:54;99470.03;;;-7.10;59.19
74893;BME280;63446;56.272;43.922;2024-01-15T05:53:20;99471.63;;;-7.09;59.15
74893;BME280;63446;56.272;43.922;2024-01-15T05:55:46;99465.84;;;-7.11;59.17
74893;BME280;63446;56.272;43.922;2024-01-15T05:58:11;99470.03;;;-7.10;59.10
74893;BME280;63446;56.272;43.922;2024-01-15T06:00:37;99472.41;;;-7.08;59.10
74893;BME280;63446;56.272;43.922;2024-01-15T06:03:04;99464.72;;;-7.08;59.05
74893;BME280;63446;56.272;43.922;2024-01-15T06:05:30;99457.81;;;-7.08;59.24
74893;BME280;63446;56.272;43.922;2024-01-15T06:07:56;99466.94;;;-7.05;59.16
74893;BME280;63446;56.272;43.922;2024-01-15T06:10:23;99461.28;;;-7.01;59.31
74893;BME280;63446;56.272;43.922;2024-01-15T06:12:48;99465.88;;;-6.96;59.15
74893;BME280;63446;56.272;43.922;2024-01-15T06:15:15;99462.78;;;-6.92;59.27
74893;BME280;63446;56.272;43.922;2024-01-15T06:17:41;99465.63;;;-6.86;59.34
74893;BME280;63446;56.272;43.922;2024-01-15T06:20:07;99457.56;;;-6.83;59.36
74893;BME280;63446;56.272;43.922;2024-01-15T06:22:34;99452.44;;;-6.83;59.25
74893;BME280;63446;56.272;43.922;2024-01-15T06:25:02;99463.22;;;-6.73;59.21
74893;BME280;63446;56.272;43.922;2024-01-15T06:27:29;99455.00;;;-6.69;59.27
74893;BME280;63446;56.272;43.922;2024-01-15T06:29:55;99456.22;;;-6.65;59.22
74893;BME280;63446;56.272;43.922;2024-01-15T06:32:21;99454.88;;;-6.60;59.22
74893;BME280;63446;56.272;43.922;2024-01-15T06:34:47;99454.69;;;-6.59;59.13
74893;BME280;63446;56.272;43.922;2024-01-15T06:37:13;99454.00;;;-6.53;59.07
74893;BME280;63446;56.272;43.922;2024-01-15T06:39:40;99441.56;;;-6.49;59.13
74893;BME280;63446;56.272;43.922;2024-01-15T06:42:06;99443.75;;;-6.46;59.02
74893;BME280;63446;56.272;43.922;2024-01-15T06:44:31;99446.78;;;-6.43;59.08
74893;BME280;63446;56.272;43.922;2024-01-15T06:46:57;99450.56;;;-6.39;59.19
74893;BME280;63446;56.272;43.922;2024-01-15T06:49:28;99453.59;;;-6.35;59.01
74893;BME280;63446;56.272;43.922;2024-01-15T06:51:55;99448.72;;;-6.30;59.07
74893;BME280;63446;56.272;43.922;2024-01-15T06:54:21;99455.25;;;-6.27;59.08
74893;BME280;63446;56.272;43.922;2024-01-15T06:56:48;99446.38;;;-6.25;59.00
74893;BME280;63446;56.272;43.922;2024-01-15T06:59:14;99450.81;;;-6.19;59.06
74893;BME280;63446;56.272;43.922;2024-01-15T07:01:39;99452.03;;;-6.15;58.97
74893;BME280;63446;56.272;43.922;2024-01-15T07:04:06;99459.22;;;-6.10;58.91
74893;BME280;63446;56.272;43.922;2024-01-15T07:06:32;99454.50;;;-6.06;58.96
74893;BME280;63446;56.272;43.922;2024-01-15T07:08:57;99462.66;;;-6.03;59.00
74893;BME280;63446;56.272;43.922;2024-01-15T07:11:24;99457.09;;;-6.00;58.97
74893;BME280;63446;56.272;43.922;2024-01-15T07:13:49;99453.22;;;-5.96;59.07
74893;BME280;63446;56.272;43.922;2024-01-15T07:16:15;99457.00;;;-5.92;59.10
74893;BME280;63446;56.272;43.922;2024-01-15T07:18:41;99461.38;;;-5.85;59.13
74893;BME280;63446;56.272;43.922;2024-01-15T07:21:07;99466.38;;;-5.84;59.07
74893;BME280;63446;56.272;43.922;2024-01-15T07:23:32;99462.25;;;-5.78;58.77
74893;BME280;63446;56.272;43.922;2024-01-15T07:25:59;99471.38;;;-5.76;58.62
74893;BME280;63446;56.272;43.922;2024-01-15T07:28:25;99472.97;;;-5.75;58.65
74893;BME280;63446;56.272;43.922;2024-01-15T07:30:50;99470.03;;;-5.72;58.77
74893;BME280;63446;56.272;43.922;2024-01-15T07:33:18;99469.47;;;-5.67;58.85
74893;BME280;63446;56.272;43.922;2024-01-15T07:35:43;99468.31;;;-5.65;58.56
74893;BME280;63446;56.272;43.922;2024-01-15T07:38:10;99461.81;;;-5.60;58.48
74893;BME280;63446;56.272;43.922;2024-01-15T07:40:38;99452.09;;;-5.58;58.50
74893;BME280;63446;56.272;43.922;2024-01-15T07:43:04;99461.06;;;-5.54;58.49
74893;BME280;63446;56.272;43.922;2024-01-15T07:45:30;99455.75;;;-5.53;58.39
74893;BME280;63446;56.272;43.922;2024-01-15T07:47:55;99455.97;;;-5.48;58.32
74893;BME280;63446;56.272;43.922;2024-01-15T07:50:21;99461.34;;;-5.43;58.47
74893;BME280;63446;56.272;43.922;2024-01-15T07:52:48;99450.50;;;-5.38;58.58
74893;BME280;63446;56.272;43.922;2024-01-15T07:55:14;99445.56;;;-5.33;58.50
74893;BME280;63446;56.272;43.922;2024-01-15T07:57:40;99451.94;;;-5.29;58.67
74893;BME280;63446;56.272;43.922;2024-01-15T08:00:06;99444.66;;;-5.25;58.49
74893;BME280;63446;56.272;43.922;2024-01-15T08:02:33;99435.75;;;-5.23;58.34
74893;BME280;63446;56.272;43.922;2024-01-15T08:04:58;99454.19;;;-5.19;58.26
74893;BME280;63446;56.272;43.922;2024-01-15T08:07:25;99443.50;;;-5.16;58.19
74893;BME280;63446;56.272;43.922;2024-01-15T08:09:52;99445.91;;;-5.14;57.94
74893;BME280;63446;56.272;43.922;2024-01-15T08:12:18;99459.38;;;-5.12;57.91
74893;BME280;63446;56.272;43.922;2024-01-15T08:14:45;99443.91;;;-5.12;57.74
74893;BME280;63446;56.272;43.922;2024-01-15T08:17:11;99437.59;;;-5.10;57.83
74893;BME280;63446;56.272;43.922;2024-01-15T08:19:37;99445.94;;;-5.08;57.89
74893;BME280;63446;56.272;43.922;2024-01-15T08:22:03;99438.03;;;-5.06;58.00
74893;BME280;63446;56.272;43.922;2024-01-15T08:24:29;99438.63;;;-5.04;57.98
74893;BME280;63446;56.272;43.922;2024-01-15T08:26:54;99432.31;;;-5.02;57.93
74893;BME280;63446;56.272;43.922;2024-01-15T08:29:21;99435.88;;;-4.96;57.82
74893;BME280;63446;56.272;43.922;2024-01-15T08:31:47;99432.13;;;-4.94;57.90
74893;BME280;63446;56.272;43.922;2024-01-15T08:34:13;99447.22;;;-4.91;57.58
74893;BME280;63446;56.272;43.922;2024-01-15T08:36:39;99438.50;;;-4.89;57.54
74893;BME280;63446;56.272;43.922;2024-01-15T08:39:06;99435.13;;;-4.90;57.45
74893;BME280;63446;56.272;43.922;2024-01-15T08:41:33;99447.03;;;-4.89;57.64
74893;BME280;63446;56.272;43.922;2024-01-15T08:43:59;99436.72;;;-4.89;57.57
74893;BME280;63446;56.272;43.922;2024-01-15T08:46:24;99428.81;;;-4.87;57.65
74893;BME280;63446;56.272;43.922;2024-01-15T08:48:50;99439.91;;;-4.87;57.83
74893;BME280;63446;56.272;43.922;2024-01-15T08:51:16;99432.34;;;-4.88;57.69
74893;BME280;63446;56.272;43.922;2024-01-15T08:53:44;99425.25;;;-4.86;57.57
74893;BME280;63446;56.272;43.922;2024-01-15T08:56:10;99431.19;;;-4.86;57.69
74893;BME280;63446;56.272;43.922;2024-01-15T08:58:36;99429.22;;;-4.84;57.58
74893;BME280;63446;56.272;43.922;2024-01-15T09:01:02;99432.41;;;-4.82;57.72
74893;BME280;63446;56.272;43.922;2024-01-15T09:03:30;99427.84;;;-4.80;57.72
74893;BME280;63446;56.272;43.922;2024-01-15T09:05:56;99429.66;;;-4.80;57.66
74893;BME280;63446;56.272;43.922;2024-01-15T09:08:22;99431.81;;;-4.77;57.62
74893;BME280;63446;56.272;43.922;2024-01-15T09:10:48;99431.81;;;-4.77;57.58
74893;BME280;63446;56.272;43.922;2024-01-15T09:13:13;99435.38;;;-4.78;57.35
74893;BME280;63446;56.272;43.922;2024-01-15T09:15:39;99434.59;;;-4.79;57.40
74893;BME280;63446;56.272;43.922;2024-01-15T09:18:05;99431.22;;;-4.79;57.21
74893;BME280;63446;56.272;43.922;2024-01-15T09:20:31;99441.53;;;-4.79;57.27
74893;BME280;63446;56.272;43.922;2024-01-15T09:22:57;99431.22;;;-4.79;57.30
74893;BME280;63446;56.272;43.922;2024-01-15T09:25:22;99430.44;;;-4.80;57.41
74893;BME280;63446;56.272;43.922;2024-01-15T09:27:48;99433.81;;;-4.79;57.45
74893;BME280;63446;56.272;43.922;2024-01-15T09:30:14;99425.28;;;-4.80;57.37
74893;BME280;63446;56.272;43.922;2024-01-15T09:32:40;99432.03;;;-4.79;57.48
74893;BME280;63446;56.272;43.922;2024-01-15T09:35:08;99432.03;;;-4.79;57.38
74893;BME280;63446;56.272;43.922;2024-01-15T09:37:34;99439.53;;;-4.77;57.57
74893;BME280;63446;56.272;43.922;2024-01-15T09:40:00;99442.13;;;-4.77;57.45
74893;BME280;63446;56.272;43.922;2024-01-15T09:42:28;99439.38;;;-4.76;57.48
74893;BME280;63446;56.272;43.922;2024-01-15T09:44:54;99454.84;;;-4.76;57.38
74893;BME280;63446;56.272;43.922;2024-01-15T09:47:21;99450.47;;;-4.75;57.59
74893;BME280;63446;56.272;43.922;2024-01-15T09:49:47;99454.47;;;-4.73;57.66
74893;BME280;63446;56.272;43.922;2024-01-15T09:52:15;99452.47;;;-4.71;57.80
74893;BME280;63446;56.272;43.922;2024-01-15T09:54:43;99450.53;;;-4.69;57.71
74893;BME280;63446;56.272;43.922;2024-01-15T09:57:09;99455.69;;;-4.69;57.70
74893;BME280;63446;56.272;43.922;2024-01-15T09:59:36;99459.03;;;-4.68;57.82
74893;BME280;63446;56.272;43.922;2024-01-15T10:02:03;99453.50;;;-4.65;57.86
74893;BME280;63446;56.272;43.922;2024-01-15T10:04:30;99445.16;;;-4.67;57.87
74893;BME280;63446;56.272;43.922;2024-01-15T10:06:57;99445.56;;;-4.63;57.88
74893;BME280;63446;56.272;43.922;2024-01-15T10:09:26;99449.72;;;-4.62;57.93
74893;BME280;63446;56.272;43.922;2024-01-15T10:11:52;99443.56;;;-4.61;57.78
74893;BME280;63446;56.272;43.922;2024-01-15T10:14:19;99446.16;;;-4.61;57.91
74893;BME280;63446;56.272;43.922;2024-01-15T10:16:45;99444.19;;;-4.59;57.85
74893;BME280;63446;56.272;43.922;2024-01-15T10:19:11;99436.47;;;-4.59;57.74
74893;BME280;63446;56.272;43.922;2024-01-15T10:21:37;99438.41;;;-4.61;57.68
74893;BME280;63446;56.272;43.922;2024-01-15T10:24:04;99431.50;;;-4.61;57.97
74893;BME280;63446;56.272;43.922;2024-01-15T10:26:31;99442.63;;;-4.60;58.06
74893;BME280;63446;56.272;43.922;2024-01-15T10:29:00;99429.91;;;-4.62;57.99
74893;BME280;63446;56.272;43.922;2024-01-15T10:31:27;99433.69;;;-4.64;58.15
74893;BME280;63446;56.272;43.922;2024-01-15T10:34:09;99431.69;;;-4.62;58.20
74893;BME280;63446;56.272;43.922;2024-01-15T10:36:35;99442.63;;;-4.60;58.22
74893;BME280;63446;56.272;43.922;2024-01-15T10:39:01;99442.78;;;-4.62;58.03
74893;BME280;63446;56.272;43.922;2024-01-15T10:41:30;99443.78;;;-4.63;58.05
74893;BME280;63446;56.272;43.922;2024-01-15T10:43:56;99444.94;;;-4.66;58.07
74893;BME280;63446;56.272;43.922;2024-01-15T10:46:24;99452.50;;;-4.64;58.12
74893;BME280;63446;56.272;43.922;2024-01-15T10:48:51;99452.69;;;-4.66;58.13
74893;BME280;63446;56.272;43.922;2024-01-15T10:51:17;99448.34;;;-4.65;58.11
74893;BME280;63446;56.272;43.922;2024-01-15T10:53:44;99447.94;;;-4.62;58.18
74893;BME280;63446;56.272;43.922;2024-01-15T10:56:11;99455.50;;;-4.60;58.17
74893;BME280;63446;56.272;43.922;2024-01-15T10:58:39;99449.34;;;-4.59;58.13
74893;BME280;63446;56.272;43.922;2024-01-15T11:01:06;99442.41;;;-4.59;58.15
74893;BME280;63446;56.272;43.922;2024-01-15T11:03:32;99436.66;;;-4.61;58.22
74893;BME280;63446;56.272;43.922;2024-01-15T11:05:59;99442.41;;;-4.59;58.17
74893;BME280;63446;56.272;43.922;2024-01-15T11:08:25;99421.78;;;-4.59;58.02
74893;BME280;63446;56.272;43.922;2024-01-15T11:10:52;99415.03;;;-4.60;58.18
74893;BME280;63446;56.272;43.922;2024-01-15T11:13:23;99422.78;;;-4.60;58.23
74893;BME280;63446;56.272;43.922;2024-01-15T11:16:07;99433.09;;;-4.60;58.27
74893;BME280;63446;56.272;43.922;2024-01-15T11:18:39;99422.00;;;-4.60;58.38
74893;BME280;63446;56.272;43.922;2024-01-15T11:23:53;99434.28;;;-4.56;58.18
74893;BME280;63446;56.272;43.922;2024-01-15T11:29:05;99411.09;;;-4.56;58.11
74893;BME280;63446;56.272;43.922;2024-01-15T11:34:08;99431.50;;;-4.54;58.29
74893;BME280;63446;56.272;43.922;2024-01-15T11:42:01;99415.25;;;-4.55;58.25
74893;BME280;63446;56.272;43.922;2024-01-15T11:44:27;99417.03;;;-4.55;58.44
74893;BME280;63446;56.272;43.922;2024-01-15T11:47:01;99407.72;;;-4.56;58.49
74893;BME280;63446;56.272;43.922;2024-01-15T11:52:19;99418.25;;;-4.51;58.58
74893;BME280;63446;56.272;43.922;2024-01-15T11:55:19;99404.19;;;-4.49;58.76
74893;BME280;63446;56.272;43.922;2024-01-15T11:57:46;99407.53;;;-4.48;58.82
74893;BME280;63446;56.272;43.922;2024-01-15T12:00:13;99404.97;;;-4.48;58.79
74893;BME280;63446;56.272;43.922;2024-01-15T12:02:41;99413.50;;;-4.48;58.71
74893;BME280;63446;56.272;43.922;2024-01-15T12:05:09;99409.13;;;-4.47;58.87
74893;BME280;63446;56.272;43.922;2024-01-15T12:07:35;99415.88;;;-4.46;58.94
74893;BME280;63446;56.272;43.922;2024-01-15T12:10:02;99412.50;;;-4.47;58.96
74893;BME280;63446;56.272;43.922;2024-01-15T12:15:09;99397.22;;;-4.48;58.95
74893;BME280;63446;56.272;43.922;2024-01-15T12:17:35;99402.19;;;-4.47;58.93
74893;BME280;63446;56.272;43.922;2024-01-15T12:20:04;99399.03;;;-4.49;59.08
74893;BME280;63446;56.272;43.922;2024-01-15T12:22:30;99412.69;;;-4.48;59.31
74893;BME280;63446;56.272;43.922;2024-01-15T12:24:56;99398.03;;;-4.48;59.20
74893;BME280;63446;56.272;43.922;2024-01-15T12:27:23;99404.19;;;-4.49;59.14
74893;BME280;63446;56.272;43.922;2024-01-15T12:29:49;99411.13;;;-4.49;59.35
74893;BME280;63446;56.272;43.922;2024-01-15T12:32:15;99410.31;;;-4.50;59.30
74893;BME280;63446;56.272;43.922;2024-01-15T12:34:41;99417.44;;;-4.52;59.35
74893;BME280;63446;56.272;43.922;2024-01-15T12:37:07;99419.25;;;-4.52;59.42
74893;BME280;63446;56.272;43.922;2024-01-15T12:39:34;99421.03;;;-4.53;59.45
74893;BME280;63446;56.272;43.922;2024-01-15T12:42:01;99408.94;;;-4.52;59.67
74893;BME280;63446;56.272;43.922;2024-01-15T12:44:28;99411.69;;;-4.54;59.68
74893;BME280;63446;56.272;43.922;2024-01-15T12:46:54;99415.06;;;-4.53;59.81
74893;BME280;63446;56.272;43.922;2024-01-15T12:49:21;99425.41;;;-4.53;59.70
74893;BME280;63446;56.272;43.922;2024-01-15T12:51:57;99415.25;;;-4.55;59.52
74893;BME280;63446;56.272;43.922;2024-01-15T12:54:24;99412.25;;;-4.58;59.77
74893;BME280;63446;56.272;43.922;2024-01-15T12:56:51;99394.81;;;-4.56;59.81
74893;BME280;63446;56.272;43.922;2024-01-15T12:59:18;99399.19;;;-4.57;59.69
74893;BME280;63446;56.272;43.922;2024-01-15T13:01:46;99401.16;;;-4.59;59.76
74893;BME280;63446;56.272;43.922;2024-01-15T13:04:22;99415.03;;;-4.60;59.61
74893;BME280;63446;56.272;43.922;2024-01-15T13:06:50;99421.38;;;-4.62;59.79